»·PEaware :: N627SP KSBP-KSMX

N627SP :: KSBP-KSMX

FLIGHT INFORMATION

Flight Status: Arrived
Operator: Privately registered:
United States
More flights under this callsign
Pilot: Tom S. (23203)
Aircraft: CESSNA 172 SKYHAWK
(C172)
More flights by this aircraft type
Origin: KSBP San Luis Co Regl
United States
Destination: KSMX Santa Maria Pub/Capt Hancock
United States
More flights between these airports :: More routes between these airports
Route: +
File this flight plan on PilotEdge
Remarks:
Altitude:
(Current/Filed)
3,500ft
Speed:
(Current/Filed)
100kts
Departed: 28-Jan-19 01:30 PM
Arrived: 28-Jan-19 02:16 PM
Distance/Time
Traveled:
22nm/0:46
Distance/Time
To Go:
Arrived

Flight Plot

Page will automatically refresh every two minutes.


Map Options




Map Legend


Flown Route
Filed Route
Departure Airport
Arrival Airport
Navaid (VOR, NDB)
Fix

Horizontal Profiles

Position Reports

Time Latitude Longitude Heading Altitude Ground
Speed
28-Jan-19 13:25 35.236712 -120.638022 127 3ft 17kts
28-Jan-19 13:27 35.233738 -120.632785 124 3ft 12kts
28-Jan-19 13:28 35.233214 -120.632419 229 3ft 0kts
28-Jan-19 13:29 35.232965 -120.632650 213 3ft 6kts
28-Jan-19 13:30 35.239574 -120.642382 320 483ft 64kts
28-Jan-19 13:31 35.237958 -120.658228 201 1407ft 75kts
28-Jan-19 13:32 35.226423 -120.645851 124 1930ft 88kts
28-Jan-19 13:33 35.207543 -120.639783 188 2305ft 84kts
28-Jan-19 13:34 35.190814 -120.641718 186 2660ft 84kts
28-Jan-19 13:35 35.171649 -120.640937 174 3055ft 86kts
28-Jan-19 13:36 35.152937 -120.630469 146 3457ft 88kts
28-Jan-19 13:37 35.132322 -120.614616 160 3538ft 90kts
28-Jan-19 13:38 35.109485 -120.602881 158 3610ft 90kts
28-Jan-19 13:39 35.086531 -120.596155 159 3673ft 90kts
28-Jan-19 13:40 35.064819 -120.581300 153 3716ft 92kts
28-Jan-19 13:41 35.041418 -120.572761 163 3757ft 92kts
28-Jan-19 13:42 35.018846 -120.560267 151 3778ft 93kts
28-Jan-19 13:43 34.996893 -120.543546 147 3749ft 97kts
28-Jan-19 13:44 34.974262 -120.524344 142 3507ft 103kts
28-Jan-19 13:45 34.950613 -120.501618 136 2886ft 111kts
28-Jan-19 13:46 34.933492 -120.471532 111 2238ft 107kts
28-Jan-19 13:46 35.239072 -120.641578 350 3ft 0kts
28-Jan-19 13:47 35.239072 -120.641578 350 3ft 0kts
28-Jan-19 13:49 35.239072 -120.641578 350 3ft 0kts
28-Jan-19 13:49 35.239072 -120.641578 350 3ft 0kts
28-Jan-19 13:50 35.239072 -120.641578 350 3ft 0kts
28-Jan-19 13:51 35.239072 -120.641578 350 3ft 0kts
28-Jan-19 13:52 35.239079 -120.641579 345 3ft 0kts
28-Jan-19 13:53 35.237262 -120.638982 124 3ft 20kts
28-Jan-19 13:54 35.233583 -120.632538 129 3ft 18kts
28-Jan-19 13:55 35.233212 -120.632412 211 3ft 2kts
28-Jan-19 13:56 35.238837 -120.643579 305 285ft 83kts
28-Jan-19 13:57 35.238175 -120.663288 200 1417ft 83kts
28-Jan-19 13:58 35.222348 -120.643114 129 2279ft 94kts
28-Jan-19 13:59 35.200303 -120.628499 156 2959ft 90kts
28-Jan-19 14:00 35.183048 -120.617166 151 3500ft 88kts
28-Jan-19 14:01 35.162225 -120.601977 145 3742ft 95kts
28-Jan-19 14:02 35.139569 -120.584237 152 3743ft 100kts
28-Jan-19 14:03 35.115908 -120.570292 155 3690ft 104kts
28-Jan-19 14:04 35.090041 -120.555138 156 3625ft 103kts
28-Jan-19 14:05 35.063983 -120.538691 153 3479ft 105kts
28-Jan-19 14:06 35.037537 -120.524347 157 3362ft 104kts
28-Jan-19 14:07 35.012170 -120.506754 142 3189ft 106kts
28-Jan-19 14:08 34.988503 -120.485526 144 2807ft 108kts
28-Jan-19 14:09 34.964408 -120.466109 159 2348ft 107kts
28-Jan-19 14:10 34.935308 -120.461038 169 1585ft 105kts
28-Jan-19 14:11 34.910139 -120.449657 122 1034ft 88kts
28-Jan-19 14:12 34.900599 -120.425991 115 785ft 77kts
28-Jan-19 14:13 34.887332 -120.432421 237 603ft 59kts
28-Jan-19 14:14 34.894110 -120.447403 314 68ft 57kts
28-Jan-19 14:15 34.900573 -120.453586 0 4ft 13kts
28-Jan-19 14:16 34.900888 -120.453570 359 3ft 0kts
28-Jan-19 14:17 34.900888 -120.453570 359 3ft 0kts
28-Jan-19 14:18 34.900888 -120.453570 359 3ft 0kts
28-Jan-19 14:19 34.900888 -120.453570 359 3ft 0kts
28-Jan-19 14:20 34.900888 -120.453570 359 3ft 0kts
28-Jan-19 14:21 34.900888 -120.453570 359 3ft 0kts
28-Jan-19 14:22 34.901033 -120.453579 2 3ft 4kts
28-Jan-19 14:23 34.902124 -120.454537 318 3ft 10kts
28-Jan-19 14:24 34.903830 -120.454351 43 3ft 0kts
28-Jan-19 14:25 34.903830 -120.454351 43 3ft 0kts

Navigation Log

Ident Type
Flight plan parsing failed, navigation log unavailable